Time;durP1;ratioP1;P1;durP2;ratioP2;P2;SDS_P1;SDS_P2;PMS_P1;PMS_P2;Temp;Humidity;BMP_temperature;BMP_pressure;BME280_temperature;BME280_humidity;BME280_pressure;Samples;Min_cycle;Max_cycle;Signal;HPM_P1;HPM_P2
2023/11/13 00:01:46;;;;;;;7.97;5.80;;;6.30;99.90;;;;;;5071604;28;20170;-68
2023/11/13 00:04:12;;;;;;;10.30;6.83;;;6.40;99.90;;;;;;5071358;28;20587;-68
2023/11/13 00:06:37;;;;;;;9.03;5.87;;;6.50;99.90;;;;;;5071290;28;20462;-68
2023/11/13 00:09:04;;;;;;;9.57;6.93;;;6.60;99.90;;;;;;5053493;28;20220;-68
2023/11/13 00:11:29;;;;;;;6.90;6.10;;;6.60;99.90;;;;;;5071658;28;20184;-68
2023/11/13 00:13:55;;;;;;;9.43;6.20;;;6.70;99.90;;;;;;5071440;28;20408;-68
2023/11/13 00:16:20;;;;;;;9.87;5.90;;;6.70;99.90;;;;;;5071554;28;20166;-68
2023/11/13 00:18:46;;;;;;;9.07;6.70;;;6.70;99.90;;;;;;5070997;28;20190;-68
2023/11/13 00:21:15;;;;;;;12.23;5.97;;;6.70;99.90;;;;;;5071500;28;20559;-68
2023/11/13 00:23:43;;;;;;;7.87;6.27;;;6.80;99.90;;;;;;5071224;28;20220;-68
2023/11/13 00:26:09;;;;;;;14.03;7.30;;;6.80;99.90;;;;;;5071505;28;20404;-68
2023/11/13 00:28:35;;;;;;;11.57;6.20;;;6.80;99.90;;;;;;5071459;28;20428;-68
2023/11/13 00:31:00;;;;;;;10.67;6.60;;;6.80;99.90;;;;;;5064225;28;20518;-68
2023/11/13 00:33:26;;;;;;;19.33;6.70;;;6.90;99.90;;;;;;5071076;28;20679;-68
2023/11/13 00:35:51;;;;;;;9.90;6.30;;;6.90;99.90;;;;;;5071381;28;20243;-68
2023/11/13 00:38:17;;;;;;;13.90;6.13;;;6.90;99.90;;;;;;5071258;28;20670;-68
2023/11/13 00:40:42;;;;;;;9.13;6.40;;;6.90;99.90;;;;;;5071286;28;20167;-68
2023/11/13 00:43:08;;;;;;;11.30;7.37;;;6.90;99.90;;;;;;5073114;28;20263;-68
2023/11/13 00:45:33;;;;;;;8.07;6.90;;;6.90;99.90;;;;;;5074954;28;20162;-68
2023/11/13 00:47:59;;;;;;;14.33;6.93;;;7.00;99.90;;;;;;5056988;28;20182;-68
2023/11/13 00:50:25;;;;;;;14.83;6.63;;;7.00;99.90;;;;;;5074874;28;20518;-68
2023/11/13 00:52:50;;;;;;;10.50;6.30;;;7.00;99.90;;;;;;5056979;28;20251;-68
2023/11/13 00:55:16;;;;;;;7.07;4.87;;;7.00;99.90;;;;;;5074743;28;20521;-68
2023/11/13 00:57:41;;;;;;;10.47;6.57;;;7.00;99.90;;;;;;5074853;28;20163;-69
2023/11/13 01:00:11;;;;;;;6.97;5.33;;;7.10;99.90;;;;;;5074528;28;20186;-68
2023/11/13 01:02:37;;;;;;;8.00;5.20;;;7.00;99.90;;;;;;5074695;28;20200;-68
2023/11/13 01:05:03;;;;;;;8.77;5.27;;;7.10;99.90;;;;;;5074527;28;20472;-68
2023/11/13 01:07:29;;;;;;;6.47;5.30;;;7.10;99.90;;;;;;5074958;28;20812;-68
2023/11/13 01:09:55;;;;;;;5.67;5.10;;;7.10;99.90;;;;;;5074362;28;20408;-68
2023/11/13 01:12:22;;;;;;;7.10;5.10;;;7.10;99.90;;;;;;5074146;28;20162;-68
2023/11/13 01:14:48;;;;;;;8.07;5.77;;;7.10;99.90;;;;;;5074330;28;20400;-68
2023/11/13 01:17:14;;;;;;;6.60;5.27;;;7.10;99.90;;;;;;5074468;28;20397;-68
2023/11/13 01:19:40;;;;;;;7.47;5.10;;;7.20;99.90;;;;;;5074234;28;20420;-68
2023/11/13 01:22:06;;;;;;;5.17;3.80;;;7.10;99.90;;;;;;5074350;28;20770;-68
2023/11/13 01:24:31;;;;;;;5.40;4.60;;;7.20;99.90;;;;;;5074143;28;20205;-68
2023/11/13 01:26:57;;;;;;;7.90;4.37;;;7.20;99.90;;;;;;5074322;28;20159;-68
2023/11/13 01:29:22;;;;;;;5.27;4.20;;;7.20;99.90;;;;;;5070618;28;20236;-68
2023/11/13 01:31:48;;;;;;;4.83;4.10;;;7.30;99.90;;;;;;5070973;28;20640;-68
2023/11/13 01:34:13;;;;;;;7.30;4.33;;;7.40;99.90;;;;;;5073818;28;20177;-68
2023/11/13 01:36:39;;;;;;;6.70;4.10;;;7.30;99.90;;;;;;5074175;28;20167;-68
2023/11/13 01:39:05;;;;;;;5.67;3.90;;;7.40;99.90;;;;;;5073949;28;20259;-68
2023/11/13 01:41:34;;;;;;;5.80;4.30;;;7.40;99.90;;;;;;5074086;28;20404;-68
2023/11/13 01:44:00;;;;;;;5.20;4.67;;;7.50;99.90;;;;;;5073816;28;20653;-68
2023/11/13 01:46:30;;;;;;;5.70;4.00;;;7.50;99.90;;;;;;5073887;28;20415;-68
2023/11/13 01:48:56;;;;;;;10.30;5.40;;;7.50;99.90;;;;;;5073715;28;20270;-68
2023/11/13 01:51:24;;;;;;;6.07;4.67;;;7.60;99.90;;;;;;5073903;28;20413;-68
2023/11/13 01:53:49;;;;;;;4.33;3.60;;;7.60;99.90;;;;;;5073342;28;20420;-68
2023/11/13 01:56:16;;;;;;;5.40;4.53;;;7.60;99.90;;;;;;5073717;28;20411;-68
2023/11/13 01:58:42;;;;;;;6.27;4.17;;;7.70;99.90;;;;;;5073562;28;20425;-68
2023/11/13 02:01:08;;;;;;;5.30;4.07;;;7.60;99.90;;;;;;5073613;28;20462;-68
2023/11/13 02:03:34;;;;;;;4.60;3.87;;;7.70;99.90;;;;;;5073396;28;20448;-68
2023/11/13 02:06:01;;;;;;;4.10;3.70;;;7.70;99.90;;;;;;5073718;28;20193;-68
2023/11/13 02:08:26;;;;;;;8.60;4.13;;;7.70;99.90;;;;;;5055517;28;20440;-68
2023/11/13 02:10:52;;;;;;;6.03;3.90;;;7.80;99.90;;;;;;5073405;28;20407;-68
2023/11/13 02:13:18;;;;;;;7.37;3.90;;;7.80;99.90;;;;;;5073278;28;20158;-68
2023/11/13 02:15:43;;;;;;;9.67;5.00;;;7.80;99.90;;;;;;5073321;28;20838;-68
2023/11/13 02:18:09;;;;;;;4.27;3.70;;;7.90;99.90;;;;;;5073162;28;20236;-68
2023/11/13 02:20:35;;;;;;;3.70;3.40;;;7.90;99.90;;;;;;5073198;28;20171;-68
2023/11/13 02:23:01;;;;;;;3.60;2.87;;;7.80;99.90;;;;;;5073075;28;20408;-68
2023/11/13 02:25:27;;;;;;;4.33;3.23;;;7.70;99.90;;;;;;5073028;28;20159;-68
2023/11/13 02:27:55;;;;;;;4.60;3.23;;;7.70;99.90;;;;;;5072938;28;20499;-68
2023/11/13 02:30:21;;;;;;;6.93;4.00;;;7.60;99.90;;;;;;5066472;28;20537;-68
2023/11/13 02:32:47;;;;;;;3.90;3.50;;;7.60;99.90;;;;;;5054839;28;20412;-68
2023/11/13 02:35:13;;;;;;;5.60;3.13;;;7.70;99.90;;;;;;5072627;28;20529;-68
2023/11/13 02:37:40;;;;;;;3.50;3.20;;;7.80;99.90;;;;;;5072877;28;20922;-68
2023/11/13 02:40:09;;;;;;;4.57;4.10;;;7.80;99.90;;;;;;5072792;28;20429;-68
2023/11/13 02:42:38;;;;;;;4.53;3.70;;;7.80;99.90;;;;;;5072790;28;20407;-68
2023/11/13 02:45:05;;;;;;;3.80;3.43;;;7.80;99.90;;;;;;5072430;28;20444;-68
2023/11/13 02:47:30;;;;;;;5.20;4.30;;;7.80;99.90;;;;;;5072725;28;20503;-68
2023/11/13 02:49:57;;;;;;;11.60;3.57;;;7.90;99.90;;;;;;5072550;28;20444;-68
2023/11/13 02:52:23;;;;;;;5.13;3.80;;;7.90;99.90;;;;;;5054571;28;20267;-68
2023/11/13 02:54:49;;;;;;;3.73;3.43;;;7.90;99.90;;;;;;5072480;28;20455;-68
2023/11/13 02:57:15;;;;;;;4.70;3.80;;;8.00;99.90;;;;;;5072518;28;20171;-68
2023/11/13 02:59:40;;;;;;;4.07;3.67;;;8.00;99.90;;;;;;5072288;28;20425;-68
2023/11/13 03:02:06;;;;;;;5.60;3.93;;;8.10;99.90;;;;;;5072388;28;20178;-68
2023/11/13 03:04:31;;;;;;;3.90;3.53;;;8.10;99.90;;;;;;5072089;28;20193;-68
2023/11/13 03:06:57;;;;;;;7.03;4.07;;;8.10;99.90;;;;;;5065119;28;20170;-68
2023/11/13 03:09:22;;;;;;;6.70;4.07;;;8.10;99.90;;;;;;5071950;28;20677;-68
2023/11/13 03:11:48;;;;;;;5.70;4.00;;;8.10;99.90;;;;;;5060144;28;20212;-68
2023/11/13 03:14:14;;;;;;;4.80;3.63;;;8.10;99.90;;;;;;5071855;28;20194;-68
2023/11/13 03:16:39;;;;;;;4.83;3.80;;;8.10;99.90;;;;;;5072270;28;20178;-68
2023/11/13 03:19:05;;;;;;;4.50;4.10;;;8.20;99.90;;;;;;5072131;28;20194;-68
2023/11/13 03:21:30;;;;;;;4.90;4.50;;;8.20;99.90;;;;;;5072271;28;20171;-68
2023/11/13 03:23:56;;;;;;;10.13;3.70;;;8.20;99.90;;;;;;5071874;28;20201;-68
2023/11/13 03:26:21;;;;;;;9.33;3.43;;;8.10;99.90;;;;;;5072117;28;20629;-68
2023/11/13 03:28:47;;;;;;;4.33;3.93;;;8.10;99.90;;;;;;5071867;28;20235;-68
2023/11/13 03:31:13;;;;;;;7.10;3.80;;;8.20;99.90;;;;;;5066117;28;20253;-68
2023/11/13 03:33:39;;;;;;;6.00;3.60;;;8.00;99.90;;;;;;5071595;28;20174;-68
2023/11/13 03:36:05;;;;;;;4.77;3.60;;;8.10;99.90;;;;;;5071962;28;20432;-68
2023/11/13 03:38:30;;;;;;;4.50;3.73;;;8.00;99.90;;;;;;5071895;28;20684;-68
2023/11/13 03:40:56;;;;;;;3.53;3.23;;;8.00;99.90;;;;;;5071866;28;20514;-68
2023/11/13 03:43:22;;;;;;;4.20;3.73;;;8.00;99.90;;;;;;5071544;28;20204;-69
2023/11/13 03:45:47;;;;;;;4.30;3.67;;;7.90;99.90;;;;;;5071861;28;20431;-69
2023/11/13 03:48:13;;;;;;;6.60;3.53;;;7.80;99.90;;;;;;5071841;28;20182;-69
2023/11/13 03:50:39;;;;;;;7.93;5.57;;;7.80;99.90;;;;;;5071572;28;20154;-68
2023/11/13 03:53:04;;;;;;;8.20;4.40;;;7.80;99.90;;;;;;5071669;28;20260;-69
2023/11/13 03:55:30;;;;;;;5.47;3.90;;;7.90;99.90;;;;;;5071616;28;20162;-68
2023/11/13 03:57:55;;;;;;;4.70;3.53;;;7.90;99.90;;;;;;5071668;28;20564;-68
2023/11/13 04:00:21;;;;;;;4.40;3.70;;;7.90;99.90;;;;;;5071666;28;20208;-68
2023/11/13 04:02:50;;;;;;;5.07;3.50;;;7.90;99.90;;;;;;5071704;28;20170;-68
2023/11/13 04:05:15;;;;;;;4.43;3.83;;;7.90;99.90;;;;;;5071546;28;20835;-69
2023/11/13 04:07:41;;;;;;;5.00;3.90;;;8.00;99.90;;;;;;5071766;28;20412;-69
2023/11/13 04:10:13;;;;;;;5.43;3.90;;;8.00;99.90;;;;;;5071547;28;20190;-68
2023/11/13 04:12:39;;;;;;;8.17;5.00;;;8.00;99.90;;;;;;5071522;28;20178;-68
2023/11/13 04:15:07;;;;;;;6.13;3.90;;;8.00;99.90;;;;;;5071413;28;20471;-68
2023/11/13 04:17:33;;;;;;;5.80;3.83;;;8.10;99.90;;;;;;5072506;28;20396;-68
2023/11/13 04:19:59;;;;;;;5.67;3.53;;;8.00;99.90;;;;;;5075395;28;20431;-68
2023/11/13 04:22:26;;;;;;;9.17;3.63;;;8.10;99.90;;;;;;5075372;28;20158;-68
2023/11/13 04:24:52;;;;;;;5.20;4.40;;;8.10;99.90;;;;;;5075073;28;20918;-68
2023/11/13 04:27:17;;;;;;;7.87;4.90;;;8.10;99.90;;;;;;5075255;28;20500;-68
2023/11/13 04:29:43;;;;;;;4.43;3.43;;;8.10;99.90;;;;;;5072168;28;20546;-68
2023/11/13 04:32:08;;;;;;;7.80;4.23;;;8.10;99.90;;;;;;5072862;28;20510;-68
2023/11/13 04:34:34;;;;;;;6.17;4.20;;;8.20;99.90;;;;;;5064856;28;20173;-68
2023/11/13 04:36:59;;;;;;;6.40;3.97;;;8.20;99.90;;;;;;5075025;28;20167;-68
2023/11/13 04:39:25;;;;;;;6.20;4.30;;;8.10;99.90;;;;;;5075058;28;20190;-68
2023/11/13 04:41:50;;;;;;;3.73;3.03;;;8.10;99.90;;;;;;5075088;28;20201;-68
2023/11/13 04:44:16;;;;;;;4.90;3.90;;;8.20;99.90;;;;;;5056791;28;20194;-68
2023/11/13 04:46:41;;;;;;;5.83;3.10;;;8.20;99.90;;;;;;5075032;28;20209;-68
2023/11/13 04:49:07;;;;;;;4.30;3.70;;;8.20;99.90;;;;;;5075030;28;20247;-69
2023/11/13 04:51:32;;;;;;;4.20;3.50;;;8.10;99.90;;;;;;5074991;28;20642;-68
2023/11/13 04:53:59;;;;;;;4.47;3.70;;;8.20;99.90;;;;;;5074585;28;20239;-68
2023/11/13 04:56:24;;;;;;;5.67;4.30;;;8.10;99.90;;;;;;5074749;28;20194;-68
2023/11/13 04:58:50;;;;;;;5.30;4.00;;;8.10;99.90;;;;;;5074679;28;20464;-68
2023/11/13 05:01:17;;;;;;;6.50;4.40;;;8.10;99.90;;;;;;5074805;28;20579;-68
2023/11/13 05:03:42;;;;;;;5.00;3.83;;;8.20;99.90;;;;;;5074377;28;20194;-69
2023/11/13 05:06:15;;;;;;;7.33;4.40;;;8.30;99.90;;;;;;5074731;28;20542;-68
2023/11/13 05:08:41;;;;;;;5.63;4.13;;;8.20;99.90;;;;;;5074583;28;20194;-68
2023/11/13 05:11:08;;;;;;;5.00;4.17;;;8.20;99.90;;;;;;5074560;28;20423;-68
2023/11/13 05:13:34;;;;;;;4.27;3.50;;;8.10;99.90;;;;;;5073414;28;20409;-68
2023/11/13 05:16:00;;;;;;;4.60;4.00;;;8.20;99.90;;;;;;5068226;28;20466;-68
2023/11/13 05:18:26;;;;;;;5.30;3.67;;;8.20;99.90;;;;;;5074170;28;20955;-68
2023/11/13 05:20:51;;;;;;;6.80;4.53;;;8.20;99.90;;;;;;5074417;28;20181;-68
2023/11/13 05:23:17;;;;;;;7.93;5.00;;;8.30;99.90;;;;;;5074275;28;20708;-69
2023/11/13 05:25:43;;;;;;;6.07;4.50;;;8.30;99.90;;;;;;5074115;28;20528;-68
2023/11/13 05:28:09;;;;;;;5.60;4.20;;;8.30;99.90;;;;;;5055784;28;20194;-68
2023/11/13 05:30:38;;;;;;;5.80;4.23;;;8.40;99.90;;;;;;5067203;28;20428;-69
2023/11/13 05:33:03;;;;;;;8.27;4.33;;;8.20;99.90;;;;;;5072033;28;20253;-68
2023/11/13 05:35:29;;;;;;;6.77;4.43;;;8.20;99.90;;;;;;5073889;28;20500;-68
2023/11/13 05:37:54;;;;;;;7.87;5.60;;;8.30;99.90;;;;;;5074051;28;20250;-68
2023/11/13 05:40:21;;;;;;;8.67;6.00;;;8.40;99.90;;;;;;5074042;28;20166;-68
2023/11/13 05:42:47;;;;;;;10.10;6.17;;;8.30;99.90;;;;;;5074027;28;20641;-68
2023/11/13 05:45:15;;;;;;;8.83;6.20;;;8.40;99.90;;;;;;5073741;28;20452;-68
2023/11/13 05:47:41;;;;;;;8.70;5.90;;;8.40;99.90;;;;;;5073917;28;20166;-68
2023/11/13 05:50:08;;;;;;;9.80;5.50;;;8.50;99.90;;;;;;5073785;28;20425;-68
2023/11/13 05:52:34;;;;;;;8.00;5.40;;;8.50;99.90;;;;;;5073607;28;20174;-69
2023/11/13 05:54:59;;;;;;;4.93;4.43;;;8.60;99.90;;;;;;5073573;28;20466;-68
2023/11/13 05:57:25;;;;;;;6.20;4.93;;;8.60;99.90;;;;;;5073718;28;20181;-68
2023/11/13 05:59:50;;;;;;;5.97;4.27;;;8.60;99.90;;;;;;5073462;28;20680;-69
2023/11/13 06:02:17;;;;;;;5.50;4.13;;;8.70;99.90;;;;;;5073723;28;20177;-68
2023/11/13 06:04:46;;;;;;;5.30;3.70;;;8.70;99.90;;;;;;5073355;28;20238;-68
2023/11/13 06:07:11;;;;;;;6.27;4.63;;;8.70;99.90;;;;;;5073513;28;20431;-68
2023/11/13 06:09:38;;;;;;;4.87;3.77;;;8.80;99.90;;;;;;5073273;28;20440;-68
2023/11/13 06:12:05;;;;;;;5.13;3.33;;;8.80;99.90;;;;;;5073491;28;20162;-68
2023/11/13 06:14:31;;;;;;;5.40;4.17;;;8.80;99.90;;;;;;5073216;28;20447;-68
2023/11/13 06:16:57;;;;;;;3.40;3.10;;;8.90;99.90;;;;;;5073371;28;20428;-68
2023/11/13 06:19:23;;;;;;;2.87;2.67;;;8.90;99.90;;;;;;5073228;28;20443;-69
2023/11/13 06:21:51;;;;;;;6.00;2.87;;;8.90;99.90;;;;;;5073141;28;20412;-68
2023/11/13 06:24:16;;;;;;;5.70;2.50;;;8.90;99.90;;;;;;5072913;28;20880;-68
2023/11/13 06:26:42;;;;;;;3.80;2.90;;;8.90;99.90;;;;;;5073172;28;20407;-69
2023/11/13 06:29:07;;;;;;;2.67;2.30;;;8.90;99.90;;;;;;5073060;28;20587;-69
2023/11/13 06:31:34;;;;;;;3.83;2.07;;;9.00;99.90;;;;;;5068342;28;20250;-68
2023/11/13 06:34:00;;;;;;;1.67;1.57;;;9.00;99.90;;;;;;5072748;28;20174;-69
2023/11/13 06:36:25;;;;;;;3.60;2.10;;;9.10;99.90;;;;;;5072911;28;20409;-68
2023/11/13 06:38:51;;;;;;;1.30;1.20;;;9.10;99.90;;;;;;5072748;28;20186;-68
2023/11/13 06:41:17;;;;;;;3.50;2.83;;;9.20;99.90;;;;;;5066140;28;20248;-69
2023/11/13 06:43:42;;;;;;;4.83;2.27;;;9.20;99.90;;;;;;5066420;28;20966;-69
2023/11/13 06:46:08;;;;;;;3.07;1.80;;;9.30;99.90;;;;;;5055385;28;20170;-69
2023/11/13 06:48:34;;;;;;;5.77;1.40;;;9.40;99.90;;;;;;5072429;28;20190;-68
2023/11/13 06:51:00;;;;;;;6.30;1.77;;;9.40;99.90;;;;;;5072483;28;20182;-69
2023/11/13 06:53:25;;;;;;;3.37;2.07;;;9.50;99.90;;;;;;5072049;28;20926;-69
2023/11/13 06:55:51;;;;;;;6.20;2.10;;;9.50;99.90;;;;;;5072420;28;20182;-69
2023/11/13 06:58:21;;;;;;;6.60;1.80;;;9.60;99.90;;;;;;5072292;28;20186;-68
2023/11/13 07:00:49;;;;;;;2.73;1.50;;;9.60;99.90;;;;;;5058294;28;20504;-68
2023/11/13 07:03:14;;;;;;;4.60;1.43;;;9.70;99.90;;;;;;5060751;28;20472;-68
2023/11/13 07:05:41;;;;;;;5.83;1.90;;;9.80;99.90;;;;;;5060038;28;20912;-69
2023/11/13 07:08:07;;;;;;;5.43;1.90;;;9.90;99.90;;;;;;5057849;28;20195;-69
2023/11/13 07:10:35;;;;;;;5.77;2.10;;;9.90;99.90;;;;;;5058350;28;20412;-69
2023/11/13 07:13:01;;;;;;;1.90;1.80;;;9.90;99.90;;;;;;5072152;28;20799;-68
2023/11/13 07:15:27;;;;;;;2.00;1.20;;;10.00;99.90;;;;;;5071922;28;20401;-69
2023/11/13 07:17:52;;;;;;;4.80;2.10;;;10.10;99.90;;;;;;5072117;28;20212;-68
2023/11/13 07:20:18;;;;;;;3.47;1.83;;;10.20;99.90;;;;;;5072178;28;20198;-69
2023/11/13 07:22:50;;;;;;;3.60;1.70;;;10.30;99.90;;;;;;5072123;28;20693;-69
2023/11/13 07:25:15;;;;;;;3.00;1.87;;;10.40;99.90;;;;;;5060088;28;20453;-69
2023/11/13 07:27:41;;;;;;;3.07;1.27;;;10.40;99.90;;;;;;5061938;28;20432;-69
2023/11/13 07:30:07;;;;;;;5.30;1.50;;;10.50;99.90;;;;;;5059308;28;20329;-69
2023/11/13 07:32:33;;;;;;;4.47;1.27;;;10.50;99.90;;;;;;5057009;28;20201;-69
2023/11/13 07:34:58;;;;;;;4.03;2.30;;;10.50;99.90;;;;;;5069469;28;20895;-69
2023/11/13 07:37:24;;;;;;;8.70;4.10;;;10.50;99.90;;;;;;5071768;28;20175;-69
2023/11/13 07:39:51;;;;;;;5.97;2.23;;;10.50;99.90;;;;;;5071536;28;20190;-69
2023/11/13 07:42:20;;;;;;;5.50;2.80;;;10.50;99.90;;;;;;5061431;28;20170;-69
2023/11/13 07:44:49;;;;;;;4.87;2.83;;;10.60;99.90;;;;;;5055168;28;20457;-69
2023/11/13 07:47:15;;;;;;;3.60;2.33;;;10.60;99.90;;;;;;5056851;28;20448;-69
2023/11/13 07:49:43;;;;;;;3.90;2.20;;;10.60;99.90;;;;;;5061440;28;20452;-69
2023/11/13 07:52:13;;;;;;;8.97;2.10;;;10.70;99.90;;;;;;5069036;28;20983;-68
2023/11/13 07:54:40;;;;;;;4.70;2.20;;;10.70;99.90;;;;;;5071463;28;20412;-69
2023/11/13 07:57:08;;;;;;;8.57;2.77;;;10.80;99.90;;;;;;5053638;28;20557;-69
2023/11/13 07:59:34;;;;;;;6.33;2.40;;;10.80;99.90;;;;;;5065559;28;20445;-68
2023/11/13 08:01:59;;;;;;;6.80;2.23;;;10.90;99.90;;;;;;5058408;28;20428;-69
2023/11/13 08:04:25;;;;;;;3.33;1.73;;;10.90;99.90;;;;;;5070948;28;20547;-69
2023/11/13 08:06:50;;;;;;;6.47;2.10;;;10.90;99.90;;;;;;5071375;28;20182;-69
2023/11/13 08:09:16;;;;;;;11.00;2.00;;;10.80;99.90;;;;;;5070832;28;20240;-69
2023/11/13 08:11:42;;;;;;;3.27;1.70;;;10.90;99.90;;;;;;5065661;28;20190;-69
2023/11/13 08:14:09;;;;;;;6.20;1.93;;;10.80;99.90;;;;;;5063714;28;20174;-69
2023/11/13 08:16:35;;;;;;;5.33;1.53;;;10.90;99.90;;;;;;5071179;28;20190;-69
2023/11/13 08:19:00;;;;;;;5.27;2.10;;;10.90;99.90;;;;;;5071348;28;20424;-69
2023/11/13 08:21:26;;;;;;;4.73;1.77;;;10.90;99.90;;;;;;5071219;28;20170;-69
2023/11/13 08:23:52;;;;;;;3.83;1.80;;;10.80;99.90;;;;;;5071270;28;20198;-69
2023/11/13 08:26:17;;;;;;;5.10;2.60;;;10.80;99.90;;;;;;5071513;28;20625;-69
2023/11/13 08:28:44;;;;;;;4.40;1.47;;;10.80;99.90;;;;;;5071349;28;20507;-69
2023/11/13 08:31:15;;;;;;;2.73;1.70;;;10.90;99.90;;;;;;5063653;28;20641;-69
2023/11/13 08:33:45;;;;;;;1.93;1.73;;;10.90;99.90;;;;;;5070192;28;20408;-69
2023/11/13 08:36:11;;;;;;;3.77;2.10;;;10.80;99.90;;;;;;5071374;28;20933;-69
2023/11/13 08:38:37;;;;;;;6.30;1.40;;;10.80;99.90;;;;;;5071248;28;20463;-69
2023/11/13 08:41:03;;;;;;;2.27;2.07;;;10.80;99.90;;;;;;5071274;28;20429;-68
2023/11/13 08:43:31;;;;;;;3.00;1.50;;;10.90;99.90;;;;;;5069493;28;20261;-69
2023/11/13 08:45:59;;;;;;;1.73;1.23;;;11.00;99.90;;;;;;5064441;28;20512;-68
2023/11/13 08:48:25;;;;;;;4.67;1.47;;;11.00;99.90;;;;;;5071135;28;20508;-68
2023/11/13 08:50:53;;;;;;;2.43;1.80;;;11.00;99.90;;;;;;5071274;28;20428;-68
2023/11/13 08:53:19;;;;;;;1.87;1.57;;;11.00;99.90;;;;;;5071190;28;20458;-68
2023/11/13 08:55:44;;;;;;;2.17;1.57;;;11.00;99.90;;;;;;5071124;28;21111;-68
2023/11/13 08:58:10;;;;;;;2.27;1.60;;;10.90;99.90;;;;;;5070950;28;20424;-68
2023/11/13 09:00:43;;;;;;;4.13;2.07;;;10.90;99.90;;;;;;5071039;28;20182;-68
2023/11/13 09:03:09;;;;;;;7.73;1.50;;;10.80;99.90;;;;;;5071457;28;20245;-68
2023/11/13 09:05:36;;;;;;;1.50;1.27;;;10.80;99.90;;;;;;5074546;28;20404;-68
2023/11/13 09:08:04;;;;;;;2.37;1.30;;;10.80;99.90;;;;;;5074677;28;20958;-68
2023/11/13 09:10:31;;;;;;;2.33;1.30;;;10.80;99.90;;;;;;5074480;28;20902;-68
2023/11/13 09:12:58;;;;;;;5.93;3.10;;;10.80;99.90;;;;;;5074534;28;20409;-68
2023/11/13 09:15:30;;;;;;;6.93;4.10;;;10.80;99.90;;;;;;5074349;28;20404;-68
2023/11/13 09:18:01;;;;;;;9.53;4.30;;;10.80;99.90;;;;;;5074167;28;20889;-68
2023/11/13 09:20:27;;;;;;;5.33;2.00;;;10.80;99.90;;;;;;5073811;28;20412;-68
2023/11/13 09:22:56;;;;;;;1.87;1.60;;;10.80;99.90;;;;;;5074259;28;20409;-68
2023/11/13 09:25:22;;;;;;;1.93;1.67;;;10.80;99.90;;;;;;5074174;28;20440;-68
2023/11/13 09:27:51;;;;;;;4.07;1.67;;;10.60;99.90;;;;;;5074213;28;20393;-66
2023/11/13 09:30:19;;;;;;;5.30;2.07;;;10.70;99.90;;;;;;5064977;28;20420;-68
2023/11/13 09:32:51;;;;;;;2.33;1.73;;;10.60;99.90;;;;;;5073034;28;20782;-68
2023/11/13 09:35:18;;;;;;;2.57;1.63;;;10.60;99.90;;;;;;5071961;28;20417;-68
2023/11/13 09:37:55;;;;;;;4.47;2.33;;;10.60;99.90;;;;;;5073895;28;20827;-68
2023/11/13 09:40:25;;;;;;;5.90;3.37;;;10.60;99.90;;;;;;5074085;28;20446;-69
2023/11/13 09:42:54;;;;;;;5.93;3.10;;;10.60;99.90;;;;;;5074035;28;20396;-68
2023/11/13 09:45:22;;;;;;;6.63;2.97;;;10.60;99.90;;;;;;5073725;28;20447;-69
2023/11/13 09:47:49;;;;;;;4.53;3.20;;;10.60;99.90;;;;;;5073636;28;20416;-68
2023/11/13 09:50:16;;;;;;;5.43;2.80;;;10.50;99.90;;;;;;5073733;28;20396;-68
2023/11/13 09:52:50;;;;;;;4.70;2.97;;;10.50;99.90;;;;;;5073819;28;20911;-68
2023/11/13 09:55:19;;;;;;;4.60;2.83;;;10.60;99.90;;;;;;5073839;28;20781;-68
2023/11/13 09:57:46;;;;;;;7.80;2.50;;;10.70;99.90;;;;;;5073839;28;20407;-68
2023/11/13 10:00:18;;;;;;;4.97;3.00;;;10.70;99.90;;;;;;5073674;28;20413;-68
2023/11/13 10:02:46;;;;;;;5.03;3.07;;;10.70;99.90;;;;;;5073674;28;20428;-68
2023/11/13 10:05:15;;;;;;;5.17;2.20;;;10.80;99.90;;;;;;5055381;28;20468;-68
2023/11/13 10:07:48;;;;;;;10.13;2.40;;;10.80;99.90;;;;;;5073449;28;20962;-68
2023/11/13 10:10:19;;;;;;;9.50;2.23;;;10.90;99.90;;;;;;5073482;28;20415;-68
2023/11/13 10:12:45;;;;;;;2.33;2.03;;;10.90;99.90;;;;;;5073447;28;20824;-68
2023/11/13 10:15:14;;;;;;;3.53;1.80;;;11.00;99.90;;;;;;5072968;28;20412;-68
2023/11/13 10:17:49;;;;;;;2.27;2.03;;;11.00;99.90;;;;;;5073481;28;20415;-68
2023/11/13 10:20:19;;;;;;;5.57;2.67;;;11.10;99.90;;;;;;5073221;28;20430;-68
2023/11/13 10:22:55;;;;;;;5.90;2.17;;;11.20;99.90;;;;;;5073309;28;20408;-68
2023/11/13 10:25:21;;;;;;;2.17;1.97;;;11.30;99.90;;;;;;5073016;28;20455;-67
2023/11/13 10:27:58;;;;;;;2.60;2.23;;;11.30;99.90;;;;;;5072725;28;21115;-68
2023/11/13 10:30:24;;;;;;;3.30;2.13;;;11.30;99.90;;;;;;5067826;28;20175;-68
2023/11/13 10:32:50;;;;;;;2.70;1.93;;;11.40;99.90;;;;;;5063469;28;20416;-68
2023/11/13 10:35:35;;;;;;;4.43;3.67;;;11.40;99.90;;;;;;5072622;28;20401;-68
2023/11/13 10:38:03;;;;;;;9.13;2.70;;;11.40;99.90;;;;;;5072790;28;20170;-68
2023/11/13 10:40:30;;;;;;;4.70;2.57;;;11.50;99.90;;;;;;5072737;28;20906;-68
2023/11/13 10:42:56;;;;;;;4.93;2.17;;;11.50;99.90;;;;;;5054628;28;20420;-68
2023/11/13 10:45:22;;;;;;;3.50;2.00;;;11.60;99.90;;;;;;5072548;28;20973;-68
2023/11/13 10:47:49;;;;;;;2.60;2.30;;;11.80;99.90;;;;;;5072445;28;20413;-68
2023/11/13 10:50:19;;;;;;;6.17;2.87;;;11.90;99.90;;;;;;5072709;28;20673;-68
2023/11/13 10:52:49;;;;;;;4.17;2.53;;;11.80;99.90;;;;;;5072535;28;20424;-68
2023/11/13 10:55:16;;;;;;;5.50;2.67;;;11.90;99.90;;;;;;5072522;28;20424;-68
2023/11/13 10:57:43;;;;;;;3.97;2.40;;;12.00;99.90;;;;;;5072692;28;20432;-68
2023/11/13 11:00:12;;;;;;;5.60;3.03;;;12.00;99.90;;;;;;5072460;28;20448;-68
2023/11/13 11:02:45;;;;;;;4.03;2.97;;;12.10;99.90;;;;;;5072493;28;20505;-68
2023/11/13 11:05:30;;;;;;;3.03;2.23;;;12.20;99.90;;;;;;5072240;28;20933;-68
2023/11/13 11:07:58;;;;;;;3.77;2.57;;;12.30;99.90;;;;;;5072309;28;20405;-68
2023/11/13 11:10:25;;;;;;;6.23;2.80;;;12.40;99.90;;;;;;5047155;28;20422;-68
2023/11/13 11:12:59;;;;;;;4.93;3.37;;;12.40;99.90;;;;;;5068961;28;20424;-68
2023/11/13 11:15:44;;;;;;;3.50;2.97;;;12.50;99.90;;;;;;5071929;28;20522;-68
2023/11/13 11:18:16;;;;;;;3.90;2.50;;;12.50;99.90;;;;;;5054047;28;20432;-68
2023/11/13 11:21:08;;;;;;;4.80;3.07;;;12.70;99.90;;;;;;5072171;28;20420;-68
2023/11/13 11:23:41;;;;;;;3.93;2.10;;;12.80;99.90;;;;;;5071939;28;20456;-68
2023/11/13 11:26:07;;;;;;;11.00;2.57;;;12.90;99.90;;;;;;5053847;28;20420;-68
2023/11/13 11:28:37;;;;;;;2.67;2.27;;;12.90;99.90;;;;;;5071881;28;20951;-68
2023/11/13 11:31:22;;;;;;;7.00;2.50;;;12.80;99.90;;;;;;5065557;28;20177;-69
2023/11/13 11:33:48;;;;;;;2.60;2.00;;;12.90;99.90;;;;;;5071683;28;20412;-69
2023/11/13 11:36:15;;;;;;;3.00;2.47;;;12.70;99.90;;;;;;5071852;28;20420;-69
2023/11/13 11:38:41;;;;;;;2.43;2.23;;;12.80;99.90;;;;;;5071947;28;20206;-69
2023/11/13 11:41:42;;;;;;;3.70;2.30;;;12.80;99.90;;;;;;5071227;28;20497;-69
2023/11/13 11:44:16;;;;;;;4.90;2.30;;;12.70;99.90;;;;;;5051741;28;20190;-68
2023/11/13 11:46:49;;;;;;;5.70;2.37;;;12.80;99.90;;;;;;5052793;28;20397;-69
2023/11/13 11:49:26;;;;;;;9.50;2.60;;;12.80;99.90;;;;;;5059768;28;20428;-69
2023/11/13 11:52:00;;;;;;;4.10;2.10;;;12.80;99.90;;;;;;5070379;28;20707;-70
2023/11/13 11:54:25;;;;;;;1.50;1.37;;;12.70;99.90;;;;;;5071533;28;20424;-69
2023/11/13 11:57:21;;;;;;;4.40;1.67;;;12.70;99.90;;;;;;5071844;28;20415;-70
2023/11/13 11:59:46;;;;;;;4.03;2.47;;;12.60;99.90;;;;;;5078234;28;20463;-69
2023/11/13 12:02:12;;;;;;;4.40;2.60;;;12.60;99.90;;;;;;5091840;28;20495;-70
2023/11/13 12:04:38;;;;;;;5.63;2.87;;;12.50;99.90;;;;;;5091406;28;20691;-69
2023/11/13 12:07:10;;;;;;;6.60;1.60;;;12.40;99.90;;;;;;5091873;28;20158;-69
2023/11/13 12:09:39;;;;;;;3.13;2.07;;;12.50;99.90;;;;;;5091520;28;20917;-69
2023/11/13 12:12:04;;;;;;;4.20;2.73;;;12.50;99.90;;;;;;5091820;28;20410;-68
2023/11/13 12:14:30;;;;;;;3.53;2.20;;;12.50;99.90;;;;;;5091497;28;20411;-68
2023/11/13 12:16:55;;;;;;;3.90;3.07;;;12.50;99.90;;;;;;5091805;28;20177;-68
2023/11/13 12:19:23;;;;;;;2.80;2.60;;;12.50;99.90;;;;;;5091442;28;20691;-69
2023/11/13 12:21:49;;;;;;;3.40;2.47;;;12.60;99.90;;;;;;5091770;28;20200;-69
2023/11/13 12:24:17;;;;;;;4.10;1.97;;;12.60;99.90;;;;;;5091229;28;20551;-67
2023/11/13 12:26:45;;;;;;;2.17;1.97;;;12.60;99.90;;;;;;5091320;28;20849;-68
2023/11/13 12:29:17;;;;;;;4.40;2.80;;;12.70;99.90;;;;;;5057130;28;20428;-68
2023/11/13 12:31:44;;;;;;;2.57;2.37;;;12.60;99.90;;;;;;5059054;28;20417;-67
2023/11/13 12:34:14;;;;;;;2.70;2.50;;;12.60;99.90;;;;;;5057234;28;20420;-68
2023/11/13 12:36:42;;;;;;;3.03;2.73;;;12.60;99.90;;;;;;5058630;28;20960;-68
2023/11/13 12:39:14;;;;;;;7.50;3.10;;;12.70;99.90;;;;;;5073111;28;20432;-68
2023/11/13 12:41:40;;;;;;;4.10;2.70;;;12.80;99.90;;;;;;5075317;28;20499;-68
2023/11/13 12:44:07;;;;;;;4.97;3.07;;;12.90;99.90;;;;;;5074922;28;20546;-68
2023/11/13 12:46:33;;;;;;;2.83;2.00;;;12.90;99.90;;;;;;5075198;28;20166;-67
2023/11/13 12:48:59;;;;;;;4.47;3.00;;;12.80;99.90;;;;;;5074991;28;20499;-68
2023/11/13 12:51:29;;;;;;;6.60;3.07;;;12.90;99.90;;;;;;5075017;28;20499;-68
2023/11/13 12:53:57;;;;;;;4.03;2.87;;;12.90;99.90;;;;;;5074732;28;20484;-67